Time;durP1;ratioP1;P1;durP2;ratioP2;P2;SDS_P1;SDS_P2;PMS_P1;PMS_P2;Temp;Humidity;BMP_temperature;BMP_pressure;BME280_temperature;BME280_humidity;BME280_pressure;Samples;Min_cycle;Max_cycle;Signal;HPM_P1;HPM_P2
2021/01/09 00:00:46;;;;;;;15.75;10.25;;;;;;;;;;5030030;28;20024;-79
2021/01/09 00:03:31;;;;;;;15.95;9.77;;;;;;;;;;5036840;28;20058;-78
2021/01/09 00:06:16;;;;;;;13.98;9.57;;;;;;;;;;5028078;28;20029;-78
2021/01/09 00:09:02;;;;;;;15.90;9.60;;;;;;;;;;5031949;28;20025;-78
2021/01/09 00:11:50;;;;;;;14.23;9.98;;;;;;;;;;5040010;28;20029;-78
2021/01/09 00:14:35;;;;;;;14.32;9.68;;;;;;;;;;5032019;28;20110;-79
2021/01/09 00:17:21;;;;;;;16.10;10.50;;;;;;;;;;5034047;28;20025;-79
2021/01/09 00:20:08;;;;;;;17.45;12.00;;;;;;;;;;5031906;28;20132;-79
2021/01/09 00:22:53;;;;;;;17.02;10.80;;;;;;;;;;5032076;28;20078;-79
2021/01/09 00:25:39;;;;;;;14.75;10.15;;;;;;;;;;5032643;28;20029;-78
2021/01/09 00:28:24;;;;;;;14.85;10.20;;;;;;;;;;5019038;28;20028;-79
2021/01/09 00:31:13;;;;;;;13.95;9.88;;;;;;;;;;5035312;28;20407;-78
2021/01/09 00:33:58;;;;;;;15.40;9.55;;;;;;;;;;5051385;28;20043;-78
2021/01/09 00:36:47;;;;;;;15.07;10.50;;;;;;;;;;5037385;28;20037;-77
2021/01/09 00:39:32;;;;;;;16.38;10.90;;;;;;;;;;5031521;28;20055;-80
2021/01/09 00:42:18;;;;;;;15.07;9.75;;;;;;;;;;5035159;28;20103;-79
2021/01/09 00:45:04;;;;;;;16.83;10.27;;;;;;;;;;5031889;28;20022;-79
2021/01/09 00:47:49;;;;;;;14.35;9.40;;;;;;;;;;5036852;28;20022;-78
2021/01/09 00:50:34;;;;;;;16.85;10.43;;;;;;;;;;5034038;28;20051;-78
2021/01/09 00:53:20;;;;;;;15.30;9.73;;;;;;;;;;5036621;28;20417;-78
2021/01/09 00:56:05;;;;;;;15.07;10.30;;;;;;;;;;5034344;28;20124;-78
2021/01/09 00:58:50;;;;;;;14.43;9.32;;;;;;;;;;5035414;28;20480;-78
2021/01/09 01:01:36;;;;;;;14.95;9.80;;;;;;;;;;5039895;28;20022;-78
2021/01/09 01:04:21;;;;;;;16.17;9.82;;;;;;;;;;5037834;28;20140;-78
2021/01/09 01:07:06;;;;;;;14.68;10.27;;;;;;;;;;5039698;28;20630;-78
2021/01/09 01:09:51;;;;;;;17.65;9.98;;;;;;;;;;5037250;28;20029;-78
2021/01/09 01:12:37;;;;;;;15.23;10.20;;;;;;;;;;5037618;28;20025;-78
2021/01/09 01:15:22;;;;;;;17.27;11.00;;;;;;;;;;5035151;28;20047;-78
2021/01/09 01:18:07;;;;;;;15.45;10.25;;;;;;;;;;5040894;28;20361;-79
2021/01/09 01:20:52;;;;;;;12.93;8.75;;;;;;;;;;5041101;28;20072;-79
2021/01/09 01:23:38;;;;;;;14.82;9.93;;;;;;;;;;5037429;28;20387;-79
2021/01/09 01:26:23;;;;;;;15.73;9.98;;;;;;;;;;5037760;28;20029;-79
2021/01/09 01:29:08;;;;;;;15.63;9.73;;;;;;;;;;5036267;28;20017;-79
2021/01/09 01:31:56;;;;;;;15.05;9.70;;;;;;;;;;5027413;28;20468;-78
2021/01/09 01:34:42;;;;;;;16.05;10.32;;;;;;;;;;5036922;28;20037;-77
2021/01/09 01:37:27;;;;;;;15.95;9.45;;;;;;;;;;5035435;28;20132;-78
2021/01/09 01:40:13;;;;;;;16.40;10.77;;;;;;;;;;5036448;28;20026;-78
2021/01/09 01:42:58;;;;;;;16.88;10.35;;;;;;;;;;5034701;28;20029;-78
2021/01/09 01:45:43;;;;;;;15.68;10.40;;;;;;;;;;5047925;28;21832;-78
2021/01/09 01:48:29;;;;;;;14.50;9.40;;;;;;;;;;5035020;28;20078;-78
2021/01/09 01:51:14;;;;;;;14.80;9.50;;;;;;;;;;5031629;28;20038;-78
2021/01/09 01:53:59;;;;;;;14.07;9.73;;;;;;;;;;5037969;28;20029;-78
2021/01/09 01:56:51;;;;;;;14.40;10.55;;;;;;;;;;5036274;28;20041;-78
2021/01/09 01:59:37;;;;;;;17.52;9.80;;;;;;;;;;5034313;28;20025;-78
2021/01/09 02:02:22;;;;;;;16.02;9.48;;;;;;;;;;5032922;28;20033;-78
2021/01/09 02:05:08;;;;;;;15.85;10.68;;;;;;;;;;5032907;28;20495;-78
2021/01/09 02:07:55;;;;;;;15.18;9.55;;;;;;;;;;5028438;28;20120;-78
2021/01/09 02:10:44;;;;;;;16.13;11.20;;;;;;;;;;5036946;28;20694;-77
2021/01/09 02:13:38;;;;;;;16.90;10.57;;;;;;;;;;5034426;28;20013;-78
2021/01/09 02:16:24;;;;;;;15.77;10.48;;;;;;;;;;5034107;28;20253;-78
2021/01/09 02:19:10;;;;;;;15.23;10.10;;;;;;;;;;5031137;28;20514;-78
2021/01/09 02:21:59;;;;;;;14.40;9.55;;;;;;;;;;5034889;28;20033;-78
2021/01/09 02:24:47;;;;;;;16.00;10.60;;;;;;;;;;5034658;28;20021;-78
2021/01/09 02:27:32;;;;;;;15.70;10.63;;;;;;;;;;5041921;28;20044;-78
2021/01/09 02:30:25;;;;;;;14.93;9.88;;;;;;;;;;5043788;28;20090;-80
2021/01/09 02:33:11;;;;;;;16.67;10.55;;;;;;;;;;5037112;28;20053;-79
2021/01/09 02:35:57;;;;;;;16.02;9.75;;;;;;;;;;5037790;28;20032;-79
2021/01/09 02:38:43;;;;;;;15.10;9.68;;;;;;;;;;5030015;28;20029;-78
2021/01/09 02:41:28;;;;;;;17.38;10.43;;;;;;;;;;5030038;28;20467;-78
2021/01/09 02:44:14;;;;;;;16.45;10.20;;;;;;;;;;5036797;28;20025;-78
2021/01/09 02:47:02;;;;;;;15.52;10.65;;;;;;;;;;5032648;28;20108;-79
2021/01/09 02:49:47;;;;;;;14.18;9.63;;;;;;;;;;5032906;28;20033;-78
2021/01/09 02:52:32;;;;;;;17.30;10.18;;;;;;;;;;5038181;28;20478;-80
2021/01/09 02:55:18;;;;;;;14.80;9.55;;;;;;;;;;5040915;28;20021;-78
2021/01/09 02:58:03;;;;;;;15.00;10.32;;;;;;;;;;5035262;28;20048;-78
2021/01/09 03:00:48;;;;;;;15.95;10.48;;;;;;;;;;5032789;28;20032;-78
2021/01/09 03:03:33;;;;;;;17.10;10.73;;;;;;;;;;5036229;28;20029;-77
2021/01/09 03:06:19;;;;;;;14.60;10.30;;;;;;;;;;5030936;28;20052;-78
2021/01/09 03:09:04;;;;;;;15.60;11.30;;;;;;;;;;5040489;28;20120;-77
2021/01/09 03:11:49;;;;;;;16.55;10.98;;;;;;;;;;5039999;28;20028;-77
2021/01/09 03:14:34;;;;;;;14.65;10.88;;;;;;;;;;5038040;28;20109;-77
2021/01/09 03:17:20;;;;;;;15.35;11.13;;;;;;;;;;5030724;28;20606;-78
2021/01/09 03:20:05;;;;;;;16.33;11.65;;;;;;;;;;5036214;28;20025;-78
2021/01/09 03:22:50;;;;;;;18.85;11.63;;;;;;;;;;5038109;28;20143;-78
2021/01/09 03:25:36;;;;;;;15.95;11.13;;;;;;;;;;5032282;28;20021;-78
2021/01/09 03:28:21;;;;;;;15.70;11.10;;;;;;;;;;5036389;28;20120;-78
2021/01/09 03:31:06;;;;;;;16.75;11.02;;;;;;;;;;5033430;28;20500;-78
2021/01/09 03:33:51;;;;;;;14.82;10.50;;;;;;;;;;5037443;28;20033;-77
2021/01/09 03:36:36;;;;;;;14.52;9.77;;;;;;;;;;5040130;28;20559;-78
2021/01/09 03:39:22;;;;;;;16.83;10.98;;;;;;;;;;5029404;28;20041;-77
2021/01/09 03:42:07;;;;;;;17.17;11.23;;;;;;;;;;5029900;28;20029;-77
2021/01/09 03:44:52;;;;;;;17.08;10.68;;;;;;;;;;5030645;28;20479;-77
2021/01/09 03:47:37;;;;;;;16.52;11.18;;;;;;;;;;5033723;28;20096;-78
2021/01/09 03:50:22;;;;;;;16.65;10.77;;;;;;;;;;5033638;28;20183;-78
2021/01/09 03:53:08;;;;;;;15.73;10.95;;;;;;;;;;5040215;28;20020;-77
2021/01/09 03:55:53;;;;;;;17.02;10.93;;;;;;;;;;5040612;28;20182;-77
2021/01/09 03:58:38;;;;;;;17.38;12.23;;;;;;;;;;5032320;28;20033;-77
2021/01/09 04:01:23;;;;;;;20.13;13.40;;;;;;;;;;5039570;28;20071;-78
2021/01/09 04:04:10;;;;;;;19.50;13.20;;;;;;;;;;5032339;28;20071;-78
2021/01/09 04:06:55;;;;;;;20.25;14.40;;;;;;;;;;5034573;28;20041;-78
2021/01/09 04:09:41;;;;;;;21.10;15.43;;;;;;;;;;5033392;28;20104;-78
2021/01/09 04:12:26;;;;;;;20.20;14.38;;;;;;;;;;5040200;28;20039;-77
2021/01/09 04:15:11;;;;;;;21.33;14.23;;;;;;;;;;5034689;28;20033;-78
2021/01/09 04:17:57;;;;;;;19.73;13.90;;;;;;;;;;5032753;28;20041;-77
2021/01/09 04:20:42;;;;;;;21.10;15.25;;;;;;;;;;5039581;28;20174;-77
2021/01/09 04:23:27;;;;;;;21.63;14.10;;;;;;;;;;5032389;28;20021;-77
2021/01/09 04:26:13;;;;;;;19.85;14.05;;;;;;;;;;5038181;28;20013;-78
2021/01/09 04:28:58;;;;;;;22.15;15.73;;;;;;;;;;5033430;28;20033;-78
2021/01/09 04:31:43;;;;;;;23.50;15.52;;;;;;;;;;5039669;28;20036;-78
2021/01/09 04:34:29;;;;;;;22.88;15.70;;;;;;;;;;5033816;28;20025;-79
2021/01/09 04:37:14;;;;;;;20.50;16.00;;;;;;;;;;5038463;28;20100;-78
2021/01/09 04:40:03;;;;;;;23.55;16.50;;;;;;;;;;5039157;28;20035;-78
2021/01/09 04:42:48;;;;;;;22.95;16.70;;;;;;;;;;5035367;28;20035;-78
2021/01/09 04:45:33;;;;;;;21.02;15.90;;;;;;;;;;5039665;28;20051;-79
2021/01/09 04:48:18;;;;;;;23.35;16.38;;;;;;;;;;5039221;28;20507;-80
2021/01/09 04:51:04;;;;;;;26.17;16.55;;;;;;;;;;5036404;28;20106;-79
2021/01/09 04:53:51;;;;;;;21.48;14.95;;;;;;;;;;5034826;28;20218;-77
2021/01/09 04:56:36;;;;;;;24.52;16.00;;;;;;;;;;5031362;28;20045;-79
2021/01/09 04:59:22;;;;;;;25.48;18.48;;;;;;;;;;5032739;28;20475;-78
2021/01/09 05:02:08;;;;;;;26.15;17.17;;;;;;;;;;5033139;28;20135;-78
2021/01/09 05:04:53;;;;;;;24.65;18.10;;;;;;;;;;5042288;28;20059;-78
2021/01/09 05:07:39;;;;;;;26.60;17.65;;;;;;;;;;5044805;28;20033;-78
2021/01/09 05:10:25;;;;;;;26.58;18.30;;;;;;;;;;5031336;28;20032;-78
2021/01/09 05:13:11;;;;;;;26.10;18.60;;;;;;;;;;5037840;28;20025;-78
2021/01/09 05:15:56;;;;;;;24.90;17.15;;;;;;;;;;5036876;28;20033;-78
2021/01/09 05:18:41;;;;;;;25.60;17.60;;;;;;;;;;5036843;28;20448;-78
2021/01/09 05:21:27;;;;;;;25.45;17.67;;;;;;;;;;5039991;28;20033;-78
2021/01/09 05:24:13;;;;;;;22.92;16.52;;;;;;;;;;5036984;28;20413;-78
2021/01/09 05:26:58;;;;;;;24.60;17.15;;;;;;;;;;5037631;28;20131;-78
2021/01/09 05:29:48;;;;;;;24.25;17.50;;;;;;;;;;5035818;28;20017;-79
2021/01/09 05:32:33;;;;;;;28.13;18.35;;;;;;;;;;5031080;28;20033;-78
2021/01/09 05:35:19;;;;;;;25.73;17.42;;;;;;;;;;5032956;28;20075;-78
2021/01/09 05:38:04;;;;;;;27.85;18.67;;;;;;;;;;5038785;28;20029;-78
2021/01/09 05:40:49;;;;;;;27.67;18.23;;;;;;;;;;5036771;28;20128;-79
2021/01/09 05:43:35;;;;;;;29.08;19.75;;;;;;;;;;5037313;28;20052;-79
2021/01/09 05:46:20;;;;;;;28.15;19.15;;;;;;;;;;5033438;28;20087;-78
2021/01/09 05:49:06;;;;;;;26.08;18.75;;;;;;;;;;5037483;28;20029;-78
2021/01/09 05:51:56;;;;;;;27.75;17.10;;;;;;;;;;5052936;28;20079;-78
2021/01/09 05:54:41;;;;;;;;;;;;;;;;;;5030591;28;20100;-78
2021/01/09 05:57:28;;;;;;;25.73;16.95;;;;;;;;;;5040462;28;19917;-78
2021/01/09 06:00:15;;;;;;;28.23;17.58;;;;;;;;;;5034018;28;20031;-78
2021/01/09 06:03:29;;;;;;;32.92;18.92;;;;;;;;;;5039623;28;20037;-77
2021/01/09 06:06:33;;;;;;;28.60;19.13;;;;;;;;;;5031818;28;20087;-78
2021/01/09 06:09:20;;;;;;;32.80;21.25;;;;;;;;;;5040421;28;20048;-78
2021/01/09 06:12:06;;;;;;;27.27;18.25;;;;;;;;;;5035155;28;20017;-77
2021/01/09 06:14:52;;;;;;;31.63;20.92;;;;;;;;;;5036887;28;20097;-78
2021/01/09 06:17:38;;;;;;;32.72;22.48;;;;;;;;;;5037189;28;20091;-78
2021/01/09 06:20:25;;;;;;;30.02;20.55;;;;;;;;;;5037246;28;20040;-78
2021/01/09 06:23:12;;;;;;;30.98;21.33;;;;;;;;;;5031071;28;20335;-78
2021/01/09 06:25:59;;;;;;;33.88;21.60;;;;;;;;;;5022942;28;20057;-78
2021/01/09 06:28:46;;;;;;;29.67;22.08;;;;;;;;;;5040350;28;20036;-78
2021/01/09 06:31:32;;;;;;;34.45;22.02;;;;;;;;;;5037203;28;20522;-78
2021/01/09 06:34:26;;;;;;;32.22;20.02;;;;;;;;;;5032898;28;20032;-79
2021/01/09 06:37:11;;;;;;;28.33;19.88;;;;;;;;;;5034404;28;20682;-78
2021/01/09 06:39:57;;;;;;;30.00;20.98;;;;;;;;;;5035305;28;20028;-77
2021/01/09 06:42:43;;;;;;;32.50;21.20;;;;;;;;;;5031181;28;20029;-78
2021/01/09 06:45:29;;;;;;;29.77;21.48;;;;;;;;;;5031524;28;20028;-77
2021/01/09 06:48:15;;;;;;;32.08;20.30;;;;;;;;;;5033661;28;20491;-78
2021/01/09 06:51:01;;;;;;;37.20;21.92;;;;;;;;;;5035886;28;20499;-78
2021/01/09 06:54:06;;;;;;;32.25;22.52;;;;;;;;;;5033061;28;20029;-78
2021/01/09 06:57:08;;;;;;;32.58;22.30;;;;;;;;;;5036740;28;20041;-77
2021/01/09 06:59:53;;;;;;;36.17;23.55;;;;;;;;;;5035449;28;20041;-77
2021/01/09 07:02:38;;;;;;;31.95;22.50;;;;;;;;;;5034461;28;20445;-78
2021/01/09 07:05:24;;;;;;;34.40;22.35;;;;;;;;;;5036407;28;20037;-78
2021/01/09 07:08:10;;;;;;;29.77;19.48;;;;;;;;;;5035400;28;20026;-78
2021/01/09 07:10:59;;;;;;;33.60;21.55;;;;;;;;;;5035584;28;20021;-77
2021/01/09 07:13:44;;;;;;;37.55;21.67;;;;;;;;;;5032085;28;20055;-77
2021/01/09 07:16:30;;;;;;;36.92;23.88;;;;;;;;;;5033080;28;20040;-77
2021/01/09 07:19:16;;;;;;;32.63;20.48;;;;;;;;;;5030884;28;20044;-77
2021/01/09 07:22:02;;;;;;;36.63;23.05;;;;;;;;;;5030148;28;20099;-77
2021/01/09 07:24:49;;;;;;;35.17;22.27;;;;;;;;;;5027837;28;20033;-76
2021/01/09 07:27:42;;;;;;;30.30;22.95;;;;;;;;;;5032030;28;20025;-79
2021/01/09 07:30:28;;;;;;;36.97;25.40;;;;;;;;;;5032901;28;20473;-78
2021/01/09 07:33:14;;;;;;;37.38;24.15;;;;;;;;;;5034844;28;20029;-78
2021/01/09 07:36:00;;;;;;;35.28;22.10;;;;;;;;;;5032231;28;20036;-78
2021/01/09 07:38:47;;;;;;;32.42;21.02;;;;;;;;;;5030764;28;20033;-76
2021/01/09 07:41:37;;;;;;;37.38;24.38;;;;;;;;;;5039849;28;20048;-77
2021/01/09 07:44:23;;;;;;;32.60;20.83;;;;;;;;;;5036863;28;20132;-77
2021/01/09 07:47:10;;;;;;;32.55;20.67;;;;;;;;;;5031441;28;20025;-78
2021/01/09 07:49:56;;;;;;;36.53;22.08;;;;;;;;;;5032190;28;20033;-77
2021/01/09 07:52:41;;;;;;;40.13;23.90;;;;;;;;;;5034398;28;20257;-79
2021/01/09 07:55:42;;;;;;;30.63;20.55;;;;;;;;;;5038826;28;20055;-80
2021/01/09 07:58:44;;;;;;;35.55;22.70;;;;;;;;;;5037923;28;20095;-83
2021/01/09 08:01:29;;;;;;;37.92;23.52;;;;;;;;;;5030398;28;20068;-81
2021/01/09 08:04:14;;;;;;;38.17;23.85;;;;;;;;;;5025967;28;20021;-85
2021/01/09 08:07:00;;;;;;;61.42;40.88;;;;;;;;;;5034243;28;20033;-79
2021/01/09 08:09:45;;;;;;;32.58;22.17;;;;;;;;;;5028552;28;20028;-81
2021/01/09 08:12:30;;;;;;;32.58;21.05;;;;;;;;;;5031966;28;20099;-78
2021/01/09 08:15:15;;;;;;;29.73;21.33;;;;;;;;;;5028076;28;20112;-78
2021/01/09 08:18:02;;;;;;;32.30;22.52;;;;;;;;;;5032931;28;20028;-78
2021/01/09 08:20:48;;;;;;;31.23;21.35;;;;;;;;;;5033096;28;20032;-81
2021/01/09 08:23:33;;;;;;;29.35;20.85;;;;;;;;;;5034856;28;20025;-78
2021/01/09 08:26:18;;;;;;;27.27;18.90;;;;;;;;;;5038352;28;20034;-78
2021/01/09 08:29:05;;;;;;;33.88;21.63;;;;;;;;;;5033835;28;20022;-77
2021/01/09 08:31:51;;;;;;;61.10;39.58;;;;;;;;;;5034778;28;20029;-78
2021/01/09 08:34:36;;;;;;;35.58;22.67;;;;;;;;;;5035706;28;20037;-77
2021/01/09 08:37:22;;;;;;;30.23;21.40;;;;;;;;;;5031995;28;20021;-77
2021/01/09 08:40:11;;;;;;;32.08;22.92;;;;;;;;;;5037339;28;20036;-79
2021/01/09 08:42:58;;;;;;;32.67;20.67;;;;;;;;;;5033792;28;20507;-78
2021/01/09 08:45:45;;;;;;;35.30;23.88;;;;;;;;;;5037526;28;20073;-77
2021/01/09 08:48:34;;;;;;;30.13;21.05;;;;;;;;;;5031510;28;20036;-78
2021/01/09 08:51:21;;;;;;;32.92;22.90;;;;;;;;;;5030957;28;20014;-76
2021/01/09 08:54:07;;;;;;;32.30;22.83;;;;;;;;;;5032321;28;20194;-79
2021/01/09 08:56:53;;;;;;;38.60;24.58;;;;;;;;;;5035607;28;20301;-80
2021/01/09 08:59:38;;;;;;;36.20;23.63;;;;;;;;;;5032808;28;20029;-80
2021/01/09 09:02:25;;;;;;;31.42;20.27;;;;;;;;;;5034122;28;20032;-79
2021/01/09 09:05:11;;;;;;;34.33;22.70;;;;;;;;;;5030276;28;20101;-80
2021/01/09 09:08:00;;;;;;;35.63;22.70;;;;;;;;;;5040415;28;20025;-80
2021/01/09 09:10:45;;;;;;;31.63;20.98;;;;;;;;;;5042676;28;20101;-79
2021/01/09 09:13:31;;;;;;;33.00;21.42;;;;;;;;;;5038072;28;20025;-78
2021/01/09 09:16:20;;;;;;;31.75;21.77;;;;;;;;;;5037857;28;20436;-80
2021/01/09 09:19:12;;;;;;;35.65;22.08;;;;;;;;;;5035726;28;20498;-80
2021/01/09 09:21:58;;;;;;;31.27;20.73;;;;;;;;;;5036821;28;20363;-81
2021/01/09 09:24:47;;;;;;;31.83;20.73;;;;;;;;;;5037269;28;20395;-80
2021/01/09 09:27:33;;;;;;;35.15;21.02;;;;;;;;;;5036400;28;20020;-79
2021/01/09 09:30:24;;;;;;;30.23;21.45;;;;;;;;;;5035563;28;20029;-79
2021/01/09 09:33:13;;;;;;;32.83;22.42;;;;;;;;;;5040870;28;20032;-79
2021/01/09 09:36:08;;;;;;;35.30;23.10;;;;;;;;;;5037034;28;20028;-78
2021/01/09 09:38:53;;;;;;;33.15;22.67;;;;;;;;;;5040512;28;20064;-78
2021/01/09 09:41:48;;;;;;;32.13;20.48;;;;;;;;;;5033334;28;20093;-78
2021/01/09 09:44:39;;;;;;;32.83;21.98;;;;;;;;;;5040584;28;20448;-82
2021/01/09 09:47:25;;;;;;;31.73;20.05;;;;;;;;;;5030968;28;20596;-84
2021/01/09 09:50:12;;;;;;;29.83;19.63;;;;;;;;;;5042660;28;20031;-84
2021/01/09 09:52:58;;;;;;;33.72;22.45;;;;;;;;;;5039516;28;20025;-81
2021/01/09 09:55:43;;;;;;;29.95;19.92;;;;;;;;;;5039231;28;20099;-81
2021/01/09 09:58:29;;;;;;;34.45;20.92;;;;;;;;;;5048113;28;20500;-89
2021/01/09 10:01:15;;;;;;;33.70;22.13;;;;;;;;;;5039975;28;20040;-79
2021/01/09 10:04:01;;;;;;;38.20;25.02;;;;;;;;;;5037124;28;20456;-79
2021/01/09 10:06:48;;;;;;;34.10;23.95;;;;;;;;;;5034723;28;20472;-80
2021/01/09 10:09:35;;;;;;;30.25;19.27;;;;;;;;;;5037019;28;20546;-81
2021/01/09 10:12:21;;;;;;;26.80;16.95;;;;;;;;;;5035225;28;20545;-83
2021/01/09 10:15:06;;;;;;;27.88;17.90;;;;;;;;;;5040582;28;20032;-84
2021/01/09 10:17:52;;;;;;;25.98;16.38;;;;;;;;;;5039030;28;20025;-83
2021/01/09 10:20:37;;;;;;;28.15;18.80;;;;;;;;;;5041494;28;20018;-82
2021/01/09 10:23:23;;;;;;;29.05;19.25;;;;;;;;;;5035893;28;20013;-81
2021/01/09 10:26:08;;;;;;;28.10;17.90;;;;;;;;;;5041097;28;20033;-80
2021/01/09 10:28:54;;;;;;;25.23;17.30;;;;;;;;;;5043106;28;20025;-80
2021/01/09 10:31:39;;;;;;;23.67;16.10;;;;;;;;;;5039497;28;20028;-79
2021/01/09 10:34:25;;;;;;;24.70;16.65;;;;;;;;;;5039924;28;20369;-80
2021/01/09 10:37:13;;;;;;;25.02;16.73;;;;;;;;;;5037522;28;20317;-80
2021/01/09 10:39:58;;;;;;;29.92;16.35;;;;;;;;;;5039935;28;20538;-81
2021/01/09 10:42:43;;;;;;;67.00;43.03;;;;;;;;;;5036769;28;20570;-84
2021/01/09 10:45:29;;;;;;;33.70;22.80;;;;;;;;;;5027644;28;20029;-79
2021/01/09 10:48:14;;;;;;;24.75;16.67;;;;;;;;;;5036019;28;20035;-82
2021/01/09 10:50:59;;;;;;;26.17;17.52;;;;;;;;;;5038589;28;20033;-74
2021/01/09 10:53:45;;;;;;;31.85;17.77;;;;;;;;;;5034351;28;20548;-76
2021/01/09 10:56:30;;;;;;;28.48;17.80;;;;;;;;;;5036970;28;20038;-80
2021/01/09 10:59:15;;;;;;;25.80;16.92;;;;;;;;;;5039201;28;20025;-79
2021/01/09 11:02:04;;;;;;;26.30;17.77;;;;;;;;;;5038026;28;20039;-80
2021/01/09 11:04:49;;;;;;;22.73;15.93;;;;;;;;;;5039612;28;20108;-80
2021/01/09 11:07:34;;;;;;;25.75;16.90;;;;;;;;;;5050814;28;20055;-79
2021/01/09 11:10:20;;;;;;;25.27;15.57;;;;;;;;;;5033921;28;20079;-80
2021/01/09 11:13:05;;;;;;;24.20;16.50;;;;;;;;;;5036567;28;20024;-80
2021/01/09 11:15:51;;;;;;;36.22;25.00;;;;;;;;;;5036470;28;20027;-80
2021/01/09 11:18:36;;;;;;;32.67;21.92;;;;;;;;;;5034708;28;20021;-80
2021/01/09 11:21:21;;;;;;;26.98;16.63;;;;;;;;;;5039922;28;20155;-79
2021/01/09 11:24:06;;;;;;;25.08;15.57;;;;;;;;;;5040444;28;20110;-79
2021/01/09 11:26:53;;;;;;;25.15;16.83;;;;;;;;;;5034455;28;20065;-79
2021/01/09 11:29:38;;;;;;;25.00;16.50;;;;;;;;;;5036600;28;20448;-80
2021/01/09 11:32:23;;;;;;;25.27;14.35;;;;;;;;;;5038473;28;20025;-80
2021/01/09 11:35:09;;;;;;;24.30;14.82;;;;;;;;;;5037349;28;20033;-79
2021/01/09 11:37:57;;;;;;;21.65;15.35;;;;;;;;;;5036826;28;20100;-80
2021/01/09 11:40:42;;;;;;;25.90;16.50;;;;;;;;;;5033103;28;20535;-80
2021/01/09 11:43:29;;;;;;;22.45;14.55;;;;;;;;;;5036573;28;20056;-80
2021/01/09 11:46:15;;;;;;;21.75;13.88;;;;;;;;;;5034106;28;20029;-80
2021/01/09 11:49:00;;;;;;;18.85;16.00;;;;;;;;;;5035840;28;20483;-81
2021/01/09 11:51:46;;;;;;;18.58;16.65;;;;;;;;;;5040282;28;20039;-80
2021/01/09 11:54:31;;;;;;;16.70;14.48;;;;;;;;;;5033613;28;20026;-81
2021/01/09 11:57:17;;;;;;;18.27;13.88;;;;;;;;;;5045832;28;20290;-80
2021/01/09 12:00:09;;;;;;;16.20;12.95;;;;;;;;;;5038752;28;20017;-80
2021/01/09 12:02:55;;;;;;;15.90;11.90;;;;;;;;;;5034301;28;20555;-80
2021/01/09 12:05:40;;;;;;;15.00;10.35;;;;;;;;;;5040380;28;20086;-81
2021/01/09 12:08:26;;;;;;;16.30;11.77;;;;;;;;;;5033155;28;20036;-80
2021/01/09 12:11:18;;;;;;;36.03;25.02;;;;;;;;;;5033315;28;20027;-80
2021/01/09 12:14:05;;;;;;;14.82;9.93;;;;;;;;;;5038632;28;20729;-80
2021/01/09 12:16:50;;;;;;;15.93;9.90;;;;;;;;;;5020913;28;20033;-79
2021/01/09 12:19:36;;;;;;;13.55;8.95;;;;;;;;;;5043082;28;20032;-79
2021/01/09 12:22:21;;;;;;;14.77;9.77;;;;;;;;;;5031867;28;20427;-80
2021/01/09 12:25:07;;;;;;;17.17;11.10;;;;;;;;;;5033258;28;20030;-80
2021/01/09 12:27:52;;;;;;;21.52;13.10;;;;;;;;;;5036062;28;20029;-79
2021/01/09 12:30:37;;;;;;;17.15;8.82;;;;;;;;;;5041677;28;20029;-79
2021/01/09 12:33:22;;;;;;;14.65;9.48;;;;;;;;;;5035638;28;20026;-79
2021/01/09 12:36:08;;;;;;;13.85;8.85;;;;;;;;;;5034253;28;20025;-79
2021/01/09 12:38:53;;;;;;;15.52;9.50;;;;;;;;;;5024477;28;20518;-79
2021/01/09 12:41:39;;;;;;;15.55;9.82;;;;;;;;;;5041059;28;20064;-80
2021/01/09 12:44:25;;;;;;;13.98;9.43;;;;;;;;;;5035281;28;20514;-79
2021/01/09 12:47:10;;;;;;;15.50;9.38;;;;;;;;;;5033497;28;20021;-78
2021/01/09 12:49:55;;;;;;;15.07;8.80;;;;;;;;;;5041138;28;20013;-79
2021/01/09 12:52:40;;;;;;;13.88;7.97;;;;;;;;;;5045417;28;20032;-79
2021/01/09 12:55:25;;;;;;;11.50;7.57;;;;;;;;;;5042037;28;20434;-79
2021/01/09 12:58:11;;;;;;;13.82;7.72;;;;;;;;;;5041154;28;20187;-79
2021/01/09 13:00:57;;;;;;;13.20;8.80;;;;;;;;;;5041932;28;20447;-79
2021/01/09 13:03:44;;;;;;;13.70;8.18;;;;;;;;;;5039068;28;20472;-79
2021/01/09 13:06:46;;;;;;;12.02;8.40;;;;;;;;;;5046146;28;20052;-79
2021/01/09 13:09:31;;;;;;;12.27;7.63;;;;;;;;;;5029652;28;20028;-79
2021/01/09 13:12:16;;;;;;;12.07;8.52;;;;;;;;;;5038764;28;20029;-79
2021/01/09 13:15:01;;;;;;;14.25;8.13;;;;;;;;;;5036309;28;20072;-79
2021/01/09 13:17:47;;;;;;;14.77;8.65;;;;;;;;;;5040939;28;20020;-78
2021/01/09 13:20:32;;;;;;;12.55;7.65;;;;;;;;;;5040887;28;20025;-79
2021/01/09 13:23:17;;;;;;;14.93;8.73;;;;;;;;;;5047368;28;20036;-83
2021/01/09 13:26:03;;;;;;;13.93;8.15;;;;;;;;;;5041537;28;20021;-79
2021/01/09 13:28:49;;;;;;;13.13;8.27;;;;;;;;;;5040524;28;20916;-79
2021/01/09 13:31:34;;;;;;;13.88;8.32;;;;;;;;;;5038226;28;20021;-82
2021/01/09 13:34:19;;;;;;;13.35;8.32;;;;;;;;;;5037203;28;20096;-81
2021/01/09 13:37:06;;;;;;;13.38;8.15;;;;;;;;;;5039949;28;20458;-78
2021/01/09 13:39:51;;;;;;;16.98;8.45;;;;;;;;;;5040030;28;20356;-81
2021/01/09 13:42:39;;;;;;;13.82;8.27;;;;;;;;;;5036635;28;20110;-82
2021/01/09 13:45:24;;;;;;;15.02;9.02;;;;;;;;;;5037673;28;20467;-79
2021/01/09 13:48:10;;;;;;;16.65;9.57;;;;;;;;;;5039418;28;20039;-78
2021/01/09 13:50:55;;;;;;;13.48;8.48;;;;;;;;;;5043865;28;20475;-79
2021/01/09 13:53:40;;;;;;;20.88;9.85;;;;;;;;;;5040403;28;21806;-81
2021/01/09 13:56:38;;;;;;;12.20;7.70;;;;;;;;;;5033924;28;20049;-79
2021/01/09 13:59:24;;;;;;;16.88;9.80;;;;;;;;;;5050141;28;20067;-79
2021/01/09 14:02:09;;;;;;;12.65;9.00;;;;;;;;;;5039413;28;20068;-80
2021/01/09 14:04:54;;;;;;;14.95;9.38;;;;;;;;;;5041993;28;20029;-79
2021/01/09 14:07:40;;;;;;;12.98;8.43;;;;;;;;;;5041362;28;20026;-80
2021/01/09 14:10:25;;;;;;;13.60;8.55;;;;;;;;;;5019569;28;20522;-79
2021/01/09 14:13:11;;;;;;;14.15;8.90;;;;;;;;;;5036684;28;20483;-79
2021/01/09 14:15:56;;;;;;;16.55;9.45;;;;;;;;;;5040088;28;20447;-81
2021/01/09 14:18:41;;;;;;;14.75;9.48;;;;;;;;;;5041778;28;20448;-80
2021/01/09 14:21:26;;;;;;;17.25;10.45;;;;;;;;;;5032522;28;20014;-78
2021/01/09 14:24:11;;;;;;;15.27;9.43;;;;;;;;;;5040381;28;20361;-79
2021/01/09 14:27:00;;;;;;;17.80;10.40;;;;;;;;;;5031886;28;20029;-82
2021/01/09 14:29:45;;;;;;;13.93;9.45;;;;;;;;;;5039130;28;20099;-79
2021/01/09 14:32:31;;;;;;;15.32;9.70;;;;;;;;;;5039473;28;20053;-79
2021/01/09 14:35:16;;;;;;;14.50;9.15;;;;;;;;;;5033454;28;20778;-79
2021/01/09 14:38:01;;;;;;;15.23;9.15;;;;;;;;;;5035950;28;20086;-79
2021/01/09 14:40:47;;;;;;;14.85;9.25;;;;;;;;;;5043061;28;20021;-80
2021/01/09 14:43:33;;;;;;;16.45;10.77;;;;;;;;;;5044197;28;20029;-79
2021/01/09 14:46:18;;;;;;;13.90;9.07;;;;;;;;;;5037905;28;20360;-79
2021/01/09 14:49:03;;;;;;;14.88;9.77;;;;;;;;;;5032738;28;20038;-78
2021/01/09 14:51:48;;;;;;;15.30;10.55;;;;;;;;;;5038310;28;20056;-80
2021/01/09 14:54:34;;;;;;;16.30;9.50;;;;;;;;;;5037144;28;20020;-80
2021/01/09 14:57:19;;;;;;;15.93;10.10;;;;;;;;;;5030197;28;20114;-79
2021/01/09 15:00:04;;;;;;;17.38;10.65;;;;;;;;;;5035141;28;20037;-79
2021/01/09 15:02:50;;;;;;;17.13;10.63;;;;;;;;;;5032555;28;20021;-80
2021/01/09 15:05:36;;;;;;;17.35;10.65;;;;;;;;;;5035134;28;20025;-80
2021/01/09 15:08:21;;;;;;;19.10;9.88;;;;;;;;;;5035634;28;20027;-78
2021/01/09 15:11:06;;;;;;;19.98;11.50;;;;;;;;;;5045013;28;20021;-79
2021/01/09 15:13:53;;;;;;;23.10;13.18;;;;;;;;;;5036197;28;20108;-80
2021/01/09 15:16:38;;;;;;;22.75;14.15;;;;;;;;;;5037671;28;20369;-79
2021/01/09 15:19:25;;;;;;;18.13;11.45;;;;;;;;;;5029076;28;20529;-81
2021/01/09 15:22:10;;;;;;;19.52;13.20;;;;;;;;;;5034266;28;20025;-80
2021/01/09 15:24:55;;;;;;;18.17;11.15;;;;;;;;;;5040048;28;20025;-81
2021/01/09 15:27:41;;;;;;;15.57;10.25;;;;;;;;;;5040123;28;20025;-82
2021/01/09 15:30:26;;;;;;;18.52;10.30;;;;;;;;;;5042513;28;20056;-79
2021/01/09 15:33:11;;;;;;;15.00;9.20;;;;;;;;;;5035708;28;20131;-80
2021/01/09 15:35:56;;;;;;;16.90;9.40;;;;;;;;;;5036674;28;20487;-79
2021/01/09 15:38:42;;;;;;;16.05;10.48;;;;;;;;;;5030732;28;20021;-81
2021/01/09 15:41:27;;;;;;;19.23;11.02;;;;;;;;;;5035032;28;20017;-80
2021/01/09 15:44:12;;;;;;;18.17;11.40;;;;;;;;;;5028919;28;20108;-79
2021/01/09 15:46:57;;;;;;;14.98;9.35;;;;;;;;;;5035657;28;20013;-81
2021/01/09 15:49:42;;;;;;;16.15;9.80;;;;;;;;;;5033294;28;20021;-80
2021/01/09 15:52:29;;;;;;;16.30;11.05;;;;;;;;;;5035306;28;20021;-79
2021/01/09 15:55:14;;;;;;;16.35;9.40;;;;;;;;;;5036215;28;20025;-80
2021/01/09 15:57:59;;;;;;;16.58;10.50;;;;;;;;;;5037360;28;20053;-79
2021/01/09 16:00:44;;;;;;;16.50;10.93;;;;;;;;;;5033130;28;20021;-79
2021/01/09 16:03:30;;;;;;;19.42;11.23;;;;;;;;;;5037761;28;20021;-80
2021/01/09 16:06:15;;;;;;;15.20;10.45;;;;;;;;;;5030782;28;20022;-79
2021/01/09 16:09:05;;;;;;;15.73;10.55;;;;;;;;;;5041270;28;20488;-81
2021/01/09 16:11:50;;;;;;;;;;;;;;;;;;5031718;28;20037;-79